Time;durP1;ratioP1;P1;durP2;ratioP2;P2;SDS_P1;SDS_P2;PMS_P1;PMS_P2;Temp;Humidity;BMP_temperature;BMP_pressure;BME280_temperature;BME280_humidity;BME280_pressure;Samples;Min_cycle;Max_cycle;Signal;HPM_P1;HPM_P2
2023/05/13 00:02:09;;;;;;;13.13;9.40;;;;;;;;;;5054669;28;20388;-62
2023/05/13 00:04:35;;;;;;;12.13;9.05;;;;;;;;;;5051558;28;20199;-62
2023/05/13 00:07:00;;;;;;;12.10;9.80;;;;;;;;;;5059955;28;20090;-62
2023/05/13 00:09:26;;;;;;;14.25;10.20;;;;;;;;;;5072484;28;20032;-61
2023/05/13 00:11:52;;;;;;;13.70;10.50;;;;;;;;;;5066230;28;20033;-62
2023/05/13 00:14:18;;;;;;;13.65;10.27;;;;;;;;;;5066962;28;20051;-62
2023/05/13 00:16:43;;;;;;;14.63;10.25;;;;;;;;;;5056779;28;20413;-62
2023/05/13 00:19:09;;;;;;;15.98;10.65;;;;;;;;;;5056131;28;20029;-62
2023/05/13 00:21:34;;;;;;;16.55;10.65;;;;;;;;;;5061629;28;20032;-63
2023/05/13 00:24:00;;;;;;;13.73;10.82;;;;;;;;;;5056209;28;20044;-63
2023/05/13 00:26:26;;;;;;;18.33;10.68;;;;;;;;;;5053478;28;20033;-63
2023/05/13 00:28:51;;;;;;;13.68;10.30;;;;;;;;;;5051363;28;20039;-62
2023/05/13 00:31:17;;;;;;;15.00;10.68;;;;;;;;;;5052285;28;21172;-62
2023/05/13 00:33:42;;;;;;;13.23;10.40;;;;;;;;;;5053430;28;20142;-61
2023/05/13 00:36:09;;;;;;;12.77;9.98;;;;;;;;;;5065335;28;20039;-62
2023/05/13 00:38:34;;;;;;;13.30;9.93;;;;;;;;;;5054393;28;20060;-62
2023/05/13 00:41:02;;;;;;;15.35;10.20;;;;;;;;;;5051025;28;20035;-62
2023/05/13 00:43:28;;;;;;;13.77;9.80;;;;;;;;;;5068636;28;20137;-62
2023/05/13 00:45:53;;;;;;;13.20;9.80;;;;;;;;;;5068245;28;20446;-63
2023/05/13 00:48:19;;;;;;;13.73;10.00;;;;;;;;;;5063677;28;20029;-63
2023/05/13 00:50:44;;;;;;;13.55;10.20;;;;;;;;;;5071125;28;20458;-62
2023/05/13 00:53:11;;;;;;;11.02;9.82;;;;;;;;;;5057497;28;20025;-62
2023/05/13 00:55:41;;;;;;;13.55;9.75;;;;;;;;;;5069633;28;20048;-62
2023/05/13 00:58:07;;;;;;;12.73;9.90;;;;;;;;;;5053672;28;20362;-63
2023/05/13 01:00:38;;;;;;;11.43;9.77;;;;;;;;;;5069805;28;20500;-62
2023/05/13 01:03:19;;;;;;;13.23;9.55;;;;;;;;;;5067712;28;20287;-62
2023/05/13 01:06:11;;;;;;;12.88;9.85;;;;;;;;;;5071256;28;20036;-62
2023/05/13 01:08:57;;;;;;;12.77;9.57;;;;;;;;;;5050221;28;20192;-62
2023/05/13 01:11:35;;;;;;;11.05;9.52;;;;;;;;;;5058157;28;20043;-62
2023/05/13 01:14:23;;;;;;;11.15;9.60;;;;;;;;;;5050652;28;20029;-61
2023/05/13 01:17:15;;;;;;;11.10;9.55;;;;;;;;;;5053837;28;20032;-62
2023/05/13 01:19:45;;;;;;;;;;;;;;;;;;5067899;28;20428;-62
2023/05/13 01:22:11;;;;;;;12.20;9.53;;;;;;;;;;5056665;28;20392;-62
2023/05/13 01:24:36;;;;;;;12.82;9.32;;;;;;;;;;5057807;28;20041;-62
2023/05/13 01:27:01;;;;;;;11.80;9.45;;;;;;;;;;5049105;28;20017;-63
2023/05/13 01:29:27;;;;;;;14.82;9.90;;;;;;;;;;5050048;28;20040;-62
2023/05/13 01:31:54;;;;;;;14.48;9.57;;;;;;;;;;5052033;28;20083;-62
2023/05/13 01:34:22;;;;;;;12.93;9.65;;;;;;;;;;5055500;28;20027;-62
2023/05/13 01:36:48;;;;;;;13.48;9.45;;;;;;;;;;5065219;28;20056;-63
2023/05/13 01:39:14;;;;;;;13.48;9.80;;;;;;;;;;5049325;28;20567;-63
2023/05/13 01:41:39;;;;;;;14.25;10.02;;;;;;;;;;5052189;28;20037;-63
2023/05/13 01:44:05;;;;;;;12.82;10.02;;;;;;;;;;5060649;28;20397;-63
2023/05/13 01:46:30;;;;;;;14.98;10.55;;;;;;;;;;5060914;28;20151;-62
2023/05/13 01:48:56;;;;;;;12.05;9.40;;;;;;;;;;5049638;28;20037;-62
2023/05/13 01:51:21;;;;;;;15.30;9.70;;;;;;;;;;5050548;28;20090;-62
2023/05/13 01:53:47;;;;;;;12.55;10.18;;;;;;;;;;5056365;28;20036;-62
2023/05/13 01:56:12;;;;;;;11.85;9.90;;;;;;;;;;5061333;28;20099;-62
2023/05/13 01:58:37;;;;;;;13.15;9.25;;;;;;;;;;5064867;28;20036;-62
2023/05/13 02:01:03;;;;;;;11.85;9.35;;;;;;;;;;5049661;28;20077;-62
2023/05/13 02:03:29;;;;;;;14.27;9.32;;;;;;;;;;5050908;28;20119;-62
2023/05/13 02:05:54;;;;;;;11.27;9.70;;;;;;;;;;5058084;28;20040;-63
2023/05/13 02:08:24;;;;;;;13.82;9.98;;;;;;;;;;5050614;28;20083;-62
2023/05/13 02:10:56;;;;;;;13.02;9.35;;;;;;;;;;5065781;28;20025;-63
2023/05/13 02:13:22;;;;;;;15.75;10.18;;;;;;;;;;5073207;28;20078;-62
2023/05/13 02:15:47;;;;;;;11.10;9.15;;;;;;;;;;5072611;28;20436;-61
2023/05/13 02:18:12;;;;;;;12.40;9.82;;;;;;;;;;5065078;28;20084;-61
2023/05/13 02:20:38;;;;;;;15.10;9.65;;;;;;;;;;5053779;28;20052;-62
2023/05/13 02:23:03;;;;;;;11.13;9.40;;;;;;;;;;5065908;28;20036;-61
2023/05/13 02:25:28;;;;;;;14.02;10.02;;;;;;;;;;5069542;28;20128;-62
2023/05/13 02:27:54;;;;;;;13.45;9.55;;;;;;;;;;5054790;28;20036;-62
2023/05/13 02:30:20;;;;;;;14.95;9.43;;;;;;;;;;5061529;28;20028;-61
2023/05/13 02:32:46;;;;;;;14.30;9.50;;;;;;;;;;5064021;28;20044;-62
2023/05/13 02:35:11;;;;;;;11.38;8.98;;;;;;;;;;5065122;28;20086;-63
2023/05/13 02:37:37;;;;;;;12.55;9.93;;;;;;;;;;5065150;28;20041;-62
2023/05/13 02:40:03;;;;;;;11.48;9.70;;;;;;;;;;5057498;28;20488;-63
2023/05/13 02:42:28;;;;;;;11.85;9.30;;;;;;;;;;5068521;28;20035;-63
2023/05/13 02:44:54;;;;;;;12.05;9.55;;;;;;;;;;5056291;28;20433;-62
2023/05/13 02:47:19;;;;;;;10.85;9.40;;;;;;;;;;5051979;28;20394;-63
2023/05/13 02:49:44;;;;;;;12.20;10.00;;;;;;;;;;5069325;28;20416;-62
2023/05/13 02:52:10;;;;;;;11.13;9.02;;;;;;;;;;5068887;28;20024;-62
2023/05/13 02:54:35;;;;;;;13.93;9.48;;;;;;;;;;5071837;28;20111;-62
2023/05/13 02:57:00;;;;;;;12.82;9.73;;;;;;;;;;5061267;28;20056;-62
2023/05/13 02:59:26;;;;;;;12.95;9.65;;;;;;;;;;5052013;28;20044;-62
2023/05/13 03:01:51;;;;;;;11.85;9.57;;;;;;;;;;5053368;28;20025;-61
2023/05/13 03:04:17;;;;;;;12.43;9.93;;;;;;;;;;5051044;28;20029;-62
2023/05/13 03:06:42;;;;;;;15.48;9.80;;;;;;;;;;5052951;28;20105;-62
2023/05/13 03:09:07;;;;;;;13.27;10.15;;;;;;;;;;5054075;28;20025;-63
2023/05/13 03:11:33;;;;;;;14.30;10.05;;;;;;;;;;5058675;28;20057;-62
2023/05/13 03:13:58;;;;;;;12.90;10.35;;;;;;;;;;5067224;28;20044;-62
2023/05/13 03:16:24;;;;;;;12.23;9.80;;;;;;;;;;5059511;28;20120;-62
2023/05/13 03:18:49;;;;;;;15.27;10.93;;;;;;;;;;5067040;28;20029;-62
2023/05/13 03:21:14;;;;;;;13.88;9.80;;;;;;;;;;5072178;28;20449;-62
2023/05/13 03:23:40;;;;;;;13.65;10.48;;;;;;;;;;5067653;28;20040;-62
2023/05/13 03:26:05;;;;;;;17.13;11.25;;;;;;;;;;5057002;28;20431;-62
2023/05/13 03:28:30;;;;;;;17.50;11.20;;;;;;;;;;5052071;28;20086;-62
2023/05/13 03:30:56;;;;;;;13.48;10.55;;;;;;;;;;5052436;28;20079;-63
2023/05/13 03:33:21;;;;;;;13.70;10.93;;;;;;;;;;5052530;28;20029;-62
2023/05/13 03:35:48;;;;;;;14.45;11.13;;;;;;;;;;5068663;28;20044;-62
2023/05/13 03:38:13;;;;;;;14.07;11.27;;;;;;;;;;5059791;28;20650;-62
2023/05/13 03:40:39;;;;;;;14.55;11.43;;;;;;;;;;5052967;28;20029;-62
2023/05/13 03:43:04;;;;;;;16.58;12.35;;;;;;;;;;5051301;28;20362;-63
2023/05/13 03:45:30;;;;;;;17.05;12.02;;;;;;;;;;5060835;28;20028;-63
2023/05/13 03:47:55;;;;;;;19.30;12.73;;;;;;;;;;5057200;28;20041;-62
2023/05/13 03:50:20;;;;;;;15.70;11.80;;;;;;;;;;5061833;28;20553;-62
2023/05/13 03:52:46;;;;;;;16.08;12.18;;;;;;;;;;5071817;28;20427;-62
2023/05/13 03:55:13;;;;;;;16.45;12.30;;;;;;;;;;5064047;28;20033;-62
2023/05/13 03:57:40;;;;;;;16.20;12.30;;;;;;;;;;5059332;28;20104;-62
2023/05/13 04:00:06;;;;;;;16.55;13.18;;;;;;;;;;5051803;28;20095;-63
2023/05/13 04:02:31;;;;;;;20.73;13.57;;;;;;;;;;5062419;28;20028;-62
2023/05/13 04:04:57;;;;;;;16.88;13.50;;;;;;;;;;5067744;28;20372;-62
2023/05/13 04:07:22;;;;;;;21.27;13.80;;;;;;;;;;5052307;28;20032;-62
2023/05/13 04:09:47;;;;;;;17.67;13.10;;;;;;;;;;5066739;28;20028;-62
2023/05/13 04:12:14;;;;;;;18.88;13.85;;;;;;;;;;5050458;28;20044;-63
2023/05/13 04:14:40;;;;;;;22.98;13.65;;;;;;;;;;5066064;28;20039;-62
2023/05/13 04:17:05;;;;;;;19.10;13.80;;;;;;;;;;5050913;28;20108;-64
2023/05/13 04:19:30;;;;;;;18.77;14.43;;;;;;;;;;5051898;28;20032;-62
2023/05/13 04:21:56;;;;;;;19.45;13.73;;;;;;;;;;5068529;28;20044;-62
2023/05/13 04:24:22;;;;;;;21.10;14.02;;;;;;;;;;5051218;28;20064;-62
2023/05/13 04:26:47;;;;;;;21.30;14.13;;;;;;;;;;5066001;28;20370;-62
2023/05/13 04:29:13;;;;;;;19.33;14.32;;;;;;;;;;5050178;28;20029;-61
2023/05/13 04:31:39;;;;;;;18.50;14.23;;;;;;;;;;5052799;28;20070;-62
2023/05/13 04:34:04;;;;;;;19.42;13.80;;;;;;;;;;5061584;28;20123;-62
2023/05/13 04:36:30;;;;;;;17.55;13.70;;;;;;;;;;5061293;28;20496;-62
2023/05/13 04:38:55;;;;;;;16.63;13.65;;;;;;;;;;5054692;28;20485;-63
2023/05/13 04:41:21;;;;;;;19.65;14.27;;;;;;;;;;5052661;28;20033;-63
2023/05/13 04:43:46;;;;;;;19.40;13.85;;;;;;;;;;5072150;28;20032;-62
2023/05/13 04:46:11;;;;;;;18.67;13.48;;;;;;;;;;5071117;28;20029;-63
2023/05/13 04:48:37;;;;;;;21.33;14.32;;;;;;;;;;5062592;28;20187;-62
2023/05/13 04:51:02;;;;;;;19.45;13.88;;;;;;;;;;5053047;28;20027;-63
2023/05/13 04:53:28;;;;;;;19.67;13.95;;;;;;;;;;5050345;28;20020;-62
2023/05/13 04:55:59;;;;;;;21.45;13.75;;;;;;;;;;5055929;28;20371;-63
2023/05/13 04:58:25;;;;;;;16.77;13.63;;;;;;;;;;5069888;28;20032;-62
2023/05/13 05:00:50;;;;;;;16.38;13.20;;;;;;;;;;5066075;28;20029;-63
2023/05/13 05:03:16;;;;;;;19.05;13.15;;;;;;;;;;5051018;28;20036;-62
2023/05/13 05:05:41;;;;;;;17.83;13.40;;;;;;;;;;5051001;28;20059;-62
2023/05/13 05:08:07;;;;;;;18.92;13.55;;;;;;;;;;5070863;28;20381;-62
2023/05/13 05:10:32;;;;;;;17.77;13.80;;;;;;;;;;5071823;28;20035;-63
2023/05/13 05:12:58;;;;;;;17.45;13.27;;;;;;;;;;5071466;28;20473;-61
2023/05/13 05:15:23;;;;;;;18.05;13.38;;;;;;;;;;5068502;28;20430;-62
2023/05/13 05:17:48;;;;;;;19.38;13.13;;;;;;;;;;5050860;28;20021;-61
2023/05/13 05:20:14;;;;;;;17.35;12.70;;;;;;;;;;5050737;28;20496;-61
2023/05/13 05:22:40;;;;;;;16.15;12.00;;;;;;;;;;5060567;28;20033;-61
2023/05/13 05:25:07;;;;;;;15.50;12.13;;;;;;;;;;5050784;28;20159;-61
2023/05/13 05:27:32;;;;;;;14.68;11.75;;;;;;;;;;5054168;28;20032;-61
2023/05/13 05:29:58;;;;;;;16.08;11.65;;;;;;;;;;5053375;28;20477;-65
2023/05/13 05:32:23;;;;;;;16.10;11.77;;;;;;;;;;5070428;28;20038;-66
2023/05/13 05:34:49;;;;;;;14.82;11.13;;;;;;;;;;5063409;28;20037;-65
2023/05/13 05:37:14;;;;;;;15.27;10.23;;;;;;;;;;5062336;28;20051;-67
2023/05/13 05:39:40;;;;;;;15.32;10.82;;;;;;;;;;5063405;28;20025;-66
2023/05/13 05:42:06;;;;;;;16.58;10.38;;;;;;;;;;5051879;28;20048;-63
2023/05/13 05:44:32;;;;;;;15.95;10.25;;;;;;;;;;5055241;28;20104;-67
2023/05/13 05:46:57;;;;;;;14.20;10.18;;;;;;;;;;5054911;28;20453;-67
2023/05/13 05:49:22;;;;;;;13.65;10.15;;;;;;;;;;5072315;28;20735;-65
2023/05/13 05:51:48;;;;;;;12.90;10.18;;;;;;;;;;5073772;28;20024;-66
2023/05/13 05:54:13;;;;;;;15.70;9.93;;;;;;;;;;5069208;28;20032;-66
2023/05/13 05:56:39;;;;;;;13.30;9.30;;;;;;;;;;5068877;28;20115;-66
2023/05/13 05:59:04;;;;;;;12.80;9.77;;;;;;;;;;5060834;28;20466;-66
2023/05/13 06:01:35;;;;;;;13.40;9.48;;;;;;;;;;5074709;28;20025;-68
2023/05/13 06:04:01;;;;;;;13.93;9.18;;;;;;;;;;5069983;28;20039;-64
2023/05/13 06:06:27;;;;;;;13.20;9.00;;;;;;;;;;5066440;28;20093;-67
2023/05/13 06:08:52;;;;;;;13.68;9.30;;;;;;;;;;5059856;28;20029;-66
2023/05/13 06:11:17;;;;;;;12.48;9.57;;;;;;;;;;5053732;28;20040;-67
2023/05/13 06:13:43;;;;;;;12.85;9.00;;;;;;;;;;5073962;28;20488;-65
2023/05/13 06:16:08;;;;;;;13.55;9.27;;;;;;;;;;5055449;28;20107;-66
2023/05/13 06:18:33;;;;;;;12.15;9.10;;;;;;;;;;5054325;28;20037;-66
2023/05/13 06:20:59;;;;;;;11.90;9.18;;;;;;;;;;5054686;28;20029;-66
2023/05/13 06:23:24;;;;;;;13.32;9.90;;;;;;;;;;5055109;28;20087;-65
2023/05/13 06:25:50;;;;;;;11.35;9.05;;;;;;;;;;5057389;28;20037;-65
2023/05/13 06:28:15;;;;;;;12.00;9.52;;;;;;;;;;5052933;28;20037;-66
2023/05/13 06:30:40;;;;;;;11.82;8.73;;;;;;;;;;5054219;28;20112;-66
2023/05/13 06:33:09;;;;;;;14.68;8.95;;;;;;;;;;5054320;28;20112;-65
2023/05/13 06:35:35;;;;;;;14.48;9.02;;;;;;;;;;5067543;28;20478;-65
2023/05/13 06:38:01;;;;;;;11.02;8.30;;;;;;;;;;5073737;28;20047;-65
2023/05/13 06:40:26;;;;;;;10.73;8.90;;;;;;;;;;5062521;28;20103;-65
2023/05/13 06:42:51;;;;;;;12.27;8.27;;;;;;;;;;5070813;28;20032;-65
2023/05/13 06:45:21;;;;;;;12.25;8.27;;;;;;;;;;5063189;28;20036;-64
2023/05/13 06:47:48;;;;;;;12.25;9.38;;;;;;;;;;5073394;28;20036;-65
2023/05/13 06:50:14;;;;;;;16.30;10.00;;;;;;;;;;5072852;28;20044;-66
2023/05/13 06:52:39;;;;;;;12.52;9.90;;;;;;;;;;5062982;28;20112;-65
2023/05/13 06:55:05;;;;;;;16.30;9.70;;;;;;;;;;5054498;28;20446;-65
2023/05/13 06:57:30;;;;;;;11.90;9.70;;;;;;;;;;5053054;28;20067;-64
2023/05/13 06:59:56;;;;;;;11.60;9.38;;;;;;;;;;5057403;28;20132;-65
2023/05/13 07:02:21;;;;;;;12.65;8.90;;;;;;;;;;5057105;28;20037;-64
2023/05/13 07:04:46;;;;;;;12.15;9.23;;;;;;;;;;5053665;28;20040;-65
2023/05/13 07:07:12;;;;;;;12.32;9.38;;;;;;;;;;5067305;28;20372;-63
2023/05/13 07:09:37;;;;;;;13.02;8.85;;;;;;;;;;5073432;28;20025;-65
2023/05/13 07:12:03;;;;;;;13.00;9.30;;;;;;;;;;5073477;28;20033;-65
2023/05/13 07:14:28;;;;;;;11.02;8.77;;;;;;;;;;5071787;28;20036;-65
2023/05/13 07:16:54;;;;;;;11.93;8.95;;;;;;;;;;5060121;28;20477;-66
2023/05/13 07:19:19;;;;;;;11.82;8.80;;;;;;;;;;5051856;28;20033;-66
2023/05/13 07:21:44;;;;;;;13.82;9.07;;;;;;;;;;5053446;28;20083;-67
2023/05/13 07:24:10;;;;;;;13.15;9.25;;;;;;;;;;5052280;28;20029;-66
2023/05/13 07:26:36;;;;;;;14.23;9.25;;;;;;;;;;5053352;28;20043;-66
2023/05/13 07:29:01;;;;;;;13.38;8.88;;;;;;;;;;5051093;28;20024;-65
2023/05/13 07:31:27;;;;;;;12.20;8.93;;;;;;;;;;5071922;28;20504;-65
2023/05/13 07:33:53;;;;;;;10.88;8.23;;;;;;;;;;5073092;28;20032;-65
2023/05/13 07:36:18;;;;;;;12.00;8.57;;;;;;;;;;5070464;28;20473;-65
2023/05/13 07:38:44;;;;;;;11.70;8.13;;;;;;;;;;5071257;28;20044;-65
2023/05/13 07:41:09;;;;;;;10.98;8.15;;;;;;;;;;5072314;28;20032;-66
2023/05/13 07:43:35;;;;;;;12.70;8.15;;;;;;;;;;5051435;28;20056;-65
2023/05/13 07:46:02;;;;;;;10.88;7.93;;;;;;;;;;5052784;28;20036;-66
2023/05/13 07:48:27;;;;;;;10.40;8.00;;;;;;;;;;5069033;28;20039;-65
2023/05/13 07:50:53;;;;;;;10.75;7.97;;;;;;;;;;5070490;28;20041;-65
2023/05/13 07:53:19;;;;;;;10.30;7.93;;;;;;;;;;5071533;28;20029;-65
2023/05/13 07:55:44;;;;;;;11.13;6.80;;;;;;;;;;5072699;28;20428;-64
2023/05/13 07:58:10;;;;;;;8.13;7.13;;;;;;;;;;5072284;28;20113;-64
2023/05/13 08:00:35;;;;;;;10.50;7.47;;;;;;;;;;5070484;28;20032;-65
2023/05/13 08:03:01;;;;;;;10.35;7.30;;;;;;;;;;5072536;28;20060;-65
2023/05/13 08:05:26;;;;;;;10.85;7.68;;;;;;;;;;5071106;28;20089;-65
2023/05/13 08:07:51;;;;;;;10.05;7.05;;;;;;;;;;5068951;28;20039;-65
2023/05/13 08:10:17;;;;;;;9.93;7.47;;;;;;;;;;5056580;28;20756;-65
2023/05/13 08:12:43;;;;;;;11.02;7.80;;;;;;;;;;5052048;28;20032;-66
2023/05/13 08:15:10;;;;;;;12.68;7.47;;;;;;;;;;5052288;28;20466;-67
2023/05/13 08:17:36;;;;;;;11.07;6.82;;;;;;;;;;5051554;28;20385;-66
2023/05/13 08:20:02;;;;;;;10.35;6.70;;;;;;;;;;5051991;28;20033;-65
2023/05/13 08:22:27;;;;;;;9.65;6.70;;;;;;;;;;5067074;28;20032;-66
2023/05/13 08:24:53;;;;;;;16.23;6.50;;;;;;;;;;5052141;28;20381;-66
2023/05/13 08:27:18;;;;;;;13.38;6.80;;;;;;;;;;5051269;28;20363;-65
2023/05/13 08:29:44;;;;;;;9.15;6.13;;;;;;;;;;5056166;28;20033;-66
2023/05/13 08:32:09;;;;;;;12.60;6.45;;;;;;;;;;5065821;28;20028;-66
2023/05/13 08:34:35;;;;;;;10.60;6.47;;;;;;;;;;5052008;28;20041;-65
2023/05/13 08:37:01;;;;;;;8.63;5.88;;;;;;;;;;5051196;28;20048;-65
2023/05/13 08:39:26;;;;;;;8.07;5.72;;;;;;;;;;5069671;28;20528;-67
2023/05/13 08:41:55;;;;;;;14.80;6.30;;;;;;;;;;5070594;28;20047;-65
2023/05/13 08:44:27;;;;;;;7.95;5.82;;;;;;;;;;5067467;28;20044;-65
2023/05/13 08:47:28;;;;;;;8.50;6.03;;;;;;;;;;5072065;28;20062;-66
2023/05/13 08:49:53;;;;;;;;;;;;;;;;;;5037364;28;20071;-64
2023/05/13 08:52:21;;;;;;;9.50;5.50;;;;;;;;;;5067609;28;19966;-64
2023/05/13 08:54:47;;;;;;;8.88;5.60;;;;;;;;;;5051939;28;20044;-66
2023/05/13 08:57:12;;;;;;;7.68;5.72;;;;;;;;;;5057379;28;20119;-65
2023/05/13 08:59:38;;;;;;;7.88;5.72;;;;;;;;;;5064522;28;20456;-64
2023/05/13 09:02:04;;;;;;;8.07;4.95;;;;;;;;;;5071466;28;20029;-65
2023/05/13 09:04:30;;;;;;;7.40;5.22;;;;;;;;;;5070506;28;20464;-65
2023/05/13 09:06:57;;;;;;;10.68;5.03;;;;;;;;;;5071652;28;20038;-65
2023/05/13 09:09:23;;;;;;;6.78;5.40;;;;;;;;;;5070819;28;20068;-64
2023/05/13 09:11:48;;;;;;;7.68;4.75;;;;;;;;;;5070961;28;20052;-64
2023/05/13 09:14:18;;;;;;;9.18;4.78;;;;;;;;;;5071317;28;20425;-64
2023/05/13 09:16:43;;;;;;;7.82;4.88;;;;;;;;;;5071573;28;20086;-64
2023/05/13 09:19:10;;;;;;;13.07;4.90;;;;;;;;;;5073438;28;20033;-64
2023/05/13 09:21:36;;;;;;;8.18;4.90;;;;;;;;;;5074637;28;20480;-64
2023/05/13 09:24:12;;;;;;;7.38;4.60;;;;;;;;;;5075486;28;20035;-64
2023/05/13 09:26:40;;;;;;;7.32;4.80;;;;;;;;;;5074798;28;20081;-66
2023/05/13 09:29:25;;;;;;;7.63;4.80;;;;;;;;;;5074822;28;20029;-65
2023/05/13 09:31:55;;;;;;;8.57;4.95;;;;;;;;;;5075400;28;20039;-66
2023/05/13 09:34:24;;;;;;;9.25;5.07;;;;;;;;;;5074519;28;20040;-64
2023/05/13 09:37:04;;;;;;;8.80;5.13;;;;;;;;;;5075248;28;20469;-65
2023/05/13 09:39:32;;;;;;;7.25;4.90;;;;;;;;;;5074529;28;20068;-65
2023/05/13 09:42:02;;;;;;;9.20;5.55;;;;;;;;;;5075086;28;20037;-65
2023/05/13 09:44:28;;;;;;;8.13;5.07;;;;;;;;;;5074420;28;20035;-64
2023/05/13 09:46:54;;;;;;;7.95;4.97;;;;;;;;;;5073253;28;20091;-64
2023/05/13 09:49:25;;;;;;;6.20;4.78;;;;;;;;;;5070424;28;20474;-66
2023/05/13 09:51:50;;;;;;;8.90;4.93;;;;;;;;;;5071877;28;20115;-67
2023/05/13 09:54:15;;;;;;;11.02;5.10;;;;;;;;;;5073489;28;20108;-66
2023/05/13 09:56:41;;;;;;;7.90;4.78;;;;;;;;;;5073065;28;20470;-67
2023/05/13 09:59:06;;;;;;;7.68;4.90;;;;;;;;;;5074831;28;20377;-67
2023/05/13 10:01:34;;;;;;;6.60;4.80;;;;;;;;;;5071757;28;20068;-65
2023/05/13 10:03:59;;;;;;;10.32;5.30;;;;;;;;;;5075276;28;20029;-66
2023/05/13 10:06:27;;;;;;;9.52;5.20;;;;;;;;;;5072064;28;20025;-65
2023/05/13 10:08:55;;;;;;;6.28;4.60;;;;;;;;;;5074668;28;20040;-66
2023/05/13 10:11:22;;;;;;;8.98;4.70;;;;;;;;;;5071188;28;20477;-65
2023/05/13 10:14:08;;;;;;;7.80;4.85;;;;;;;;;;5054957;28;20076;-67
2023/05/13 10:16:34;;;;;;;8.50;5.30;;;;;;;;;;5073678;28;20128;-66
2023/05/13 10:18:59;;;;;;;13.25;5.45;;;;;;;;;;5069959;28;20161;-65
2023/05/13 10:21:28;;;;;;;8.57;4.78;;;;;;;;;;5069662;28;20035;-65
2023/05/13 10:23:55;;;;;;;7.30;4.72;;;;;;;;;;5074344;28;20043;-66
2023/05/13 10:26:22;;;;;;;8.05;4.90;;;;;;;;;;5064439;28;20029;-65
2023/05/13 10:28:48;;;;;;;7.00;4.80;;;;;;;;;;5054370;28;20029;-66
2023/05/13 10:31:16;;;;;;;7.78;5.10;;;;;;;;;;5070022;28;20048;-65
2023/05/13 10:33:42;;;;;;;7.95;4.65;;;;;;;;;;5053509;28;20033;-66
2023/05/13 10:36:44;;;;;;;7.32;4.88;;;;;;;;;;5058246;28;20048;-65
2023/05/13 10:39:13;;;;;;;8.95;5.30;;;;;;;;;;5063782;28;20040;-65
2023/05/13 10:41:47;;;;;;;7.15;4.47;;;;;;;;;;5061765;28;20111;-65
2023/05/13 10:44:12;;;;;;;8.05;4.70;;;;;;;;;;5054077;28;20090;-65
2023/05/13 10:46:38;;;;;;;5.72;4.45;;;;;;;;;;5052203;28;20202;-65
2023/05/13 10:49:04;;;;;;;10.02;4.95;;;;;;;;;;5053799;28;20036;-67
2023/05/13 10:51:30;;;;;;;9.48;4.88;;;;;;;;;;5066881;28;20024;-65
2023/05/13 10:53:57;;;;;;;8.20;4.32;;;;;;;;;;5073803;28;20024;-66
2023/05/13 10:56:26;;;;;;;6.90;4.22;;;;;;;;;;5059676;28;20029;-66
2023/05/13 10:59:02;;;;;;;7.95;4.30;;;;;;;;;;5073740;28;20149;-67
2023/05/13 11:01:34;;;;;;;10.35;4.35;;;;;;;;;;5062216;28;20043;-66
2023/05/13 11:04:02;;;;;;;7.33;4.27;;;;;;;;;;5062047;28;20032;-66
2023/05/13 11:06:37;;;;;;;9.02;4.00;;;;;;;;;;5064229;28;20036;-65
2023/05/13 11:09:10;;;;;;;5.85;3.97;;;;;;;;;;5058063;28;20039;-66
2023/05/13 11:11:36;;;;;;;7.63;4.20;;;;;;;;;;5066648;28;20054;-65
2023/05/13 11:14:16;;;;;;;9.52;4.70;;;;;;;;;;5071875;28;20047;-66
2023/05/13 11:17:03;;;;;;;6.85;4.28;;;;;;;;;;5072829;28;20029;-65
2023/05/13 11:19:34;;;;;;;8.57;3.97;;;;;;;;;;5072150;28;20048;-64
2023/05/13 11:22:15;;;;;;;5.38;3.80;;;;;;;;;;5059734;28;20130;-64
2023/05/13 11:24:44;;;;;;;7.05;3.90;;;;;;;;;;5052292;28;20676;-65
2023/05/13 11:27:17;;;;;;;6.80;3.97;;;;;;;;;;5054779;28;20101;-65
2023/05/13 11:29:55;;;;;;;9.43;4.10;;;;;;;;;;5071065;28;20020;-65
2023/05/13 11:32:52;;;;;;;9.00;4.03;;;;;;;;;;5071169;28;20037;-65
2023/05/13 11:35:28;;;;;;;5.75;3.55;;;;;;;;;;5077996;28;20040;-65
2023/05/13 11:37:58;;;;;;;17.95;4.15;;;;;;;;;;5086869;28;20051;-65
2023/05/13 11:40:25;;;;;;;6.60;3.75;;;;;;;;;;5052002;28;20025;-65
2023/05/13 11:42:50;;;;;;;9.88;3.80;;;;;;;;;;5051536;28;20485;-64
2023/05/13 11:45:18;;;;;;;7.05;3.70;;;;;;;;;;5065176;28;20064;-65
2023/05/13 11:47:43;;;;;;;8.65;3.75;;;;;;;;;;5072038;28;20457;-65
2023/05/13 11:50:26;;;;;;;6.63;3.75;;;;;;;;;;5072707;28;20482;-66
2023/05/13 11:52:54;;;;;;;6.82;3.42;;;;;;;;;;5069670;28;20129;-67
2023/05/13 11:55:34;;;;;;;4.63;3.30;;;;;;;;;;5072465;28;20477;-65
2023/05/13 11:58:01;;;;;;;5.85;3.42;;;;;;;;;;5072206;28;20487;-64
2023/05/13 12:00:31;;;;;;;5.47;3.30;;;;;;;;;;5067159;28;20028;-65
2023/05/13 12:02:57;;;;;;;6.88;3.47;;;;;;;;;;5070417;28;20051;-65
2023/05/13 12:05:23;;;;;;;5.93;3.60;;;;;;;;;;5054973;28;20064;-66
2023/05/13 12:07:48;;;;;;;6.10;3.63;;;;;;;;;;5051947;28;20065;-66
2023/05/13 12:10:14;;;;;;;6.35;3.50;;;;;;;;;;5057793;28;20028;-64
2023/05/13 12:12:42;;;;;;;5.80;3.50;;;;;;;;;;5067054;28;20579;-65
2023/05/13 12:15:13;;;;;;;4.90;3.35;;;;;;;;;;5072370;28;20044;-65
2023/05/13 12:17:39;;;;;;;5.80;3.20;;;;;;;;;;5071451;28;20067;-64
2023/05/13 12:20:10;;;;;;;6.75;3.45;;;;;;;;;;5071299;28;20412;-65
2023/05/13 12:22:43;;;;;;;5.72;3.40;;;;;;;;;;5065134;28;20377;-65
2023/05/13 12:25:31;;;;;;;7.95;3.20;;;;;;;;;;5071841;28;20035;-64
2023/05/13 12:27:57;;;;;;;4.63;2.97;;;;;;;;;;5072044;28;20047;-64
2023/05/13 12:30:23;;;;;;;7.65;3.50;;;;;;;;;;5073374;28;20086;-64
2023/05/13 12:32:48;;;;;;;4.15;3.28;;;;;;;;;;5055832;28;20040;-64
2023/05/13 12:35:14;;;;;;;4.93;3.53;;;;;;;;;;5061589;28;20358;-64
2023/05/13 12:37:40;;;;;;;7.07;3.45;;;;;;;;;;5071067;28;20129;-64
2023/05/13 12:40:13;;;;;;;3.88;3.30;;;;;;;;;;5071658;28;20473;-64
2023/05/13 12:42:43;;;;;;;5.88;3.50;;;;;;;;;;5056836;28;20202;-65
2023/05/13 12:45:09;;;;;;;5.43;3.20;;;;;;;;;;5051672;28;20086;-64
2023/05/13 12:47:51;;;;;;;9.18;3.67;;;;;;;;;;5050786;28;20029;-65
2023/05/13 12:50:16;;;;;;;6.60;3.70;;;;;;;;;;5051906;28;20041;-65
2023/05/13 12:52:42;;;;;;;5.72;3.33;;;;;;;;;;5057834;28;20492;-64
2023/05/13 12:55:08;;;;;;;4.50;3.00;;;;;;;;;;5070388;28;20113;-65
2023/05/13 12:57:33;;;;;;;6.72;3.00;;;;;;;;;;5070805;28;20024;-65
2023/05/13 12:59:58;;;;;;;5.28;3.10;;;;;;;;;;5071715;28;20026;-64
2023/05/13 13:02:24;;;;;;;6.20;3.25;;;;;;;;;;5071621;28;20368;-64
2023/05/13 13:04:49;;;;;;;5.85;3.25;;;;;;;;;;5070596;28;20032;-64
2023/05/13 13:07:15;;;;;;;4.97;3.20;;;;;;;;;;5071771;28;20025;-64
2023/05/13 13:09:40;;;;;;;8.05;3.20;;;;;;;;;;5070307;28;20107;-64
2023/05/13 13:12:06;;;;;;;5.78;3.28;;;;;;;;;;5071496;28;20055;-64
2023/05/13 13:14:32;;;;;;;5.93;3.08;;;;;;;;;;5070581;28;20033;-65
2023/05/13 13:16:57;;;;;;;6.60;3.38;;;;;;;;;;5071661;28;20500;-64
2023/05/13 13:19:23;;;;;;;4.82;3.35;;;;;;;;;;5071778;28;20111;-64
2023/05/13 13:21:48;;;;;;;5.20;3.30;;;;;;;;;;5070624;28;20032;-64
2023/05/13 13:24:14;;;;;;;5.97;3.03;;;;;;;;;;5056296;28;20029;-63
2023/05/13 13:26:39;;;;;;;8.90;3.20;;;;;;;;;;5055298;28;20051;-64
2023/05/13 13:29:05;;;;;;;4.75;3.20;;;;;;;;;;5066827;28;20060;-65
2023/05/13 13:31:30;;;;;;;5.13;3.00;;;;;;;;;;5070674;28;20028;-64
2023/05/13 13:33:57;;;;;;;5.50;3.30;;;;;;;;;;5070910;28;20028;-64
2023/05/13 13:36:23;;;;;;;6.13;3.90;;;;;;;;;;5071451;28;20119;-65
2023/05/13 13:38:48;;;;;;;4.78;3.40;;;;;;;;;;5070651;28;20189;-64
2023/05/13 13:41:13;;;;;;;5.68;3.55;;;;;;;;;;5071133;28;20116;-67
2023/05/13 13:43:39;;;;;;;14.15;3.85;;;;;;;;;;5064595;28;20032;-65
2023/05/13 13:46:04;;;;;;;7.35;3.42;;;;;;;;;;5050419;28;20035;-65
2023/05/13 13:48:30;;;;;;;5.40;3.35;;;;;;;;;;5062510;28;20033;-64
2023/05/13 13:50:57;;;;;;;5.93;3.67;;;;;;;;;;5053649;28;20469;-64
2023/05/13 13:53:22;;;;;;;5.65;3.45;;;;;;;;;;5054129;28;20040;-65
2023/05/13 13:55:48;;;;;;;7.32;3.60;;;;;;;;;;5068942;28;20033;-65
2023/05/13 13:58:14;;;;;;;6.78;3.75;;;;;;;;;;5065982;28;20055;-65
2023/05/13 14:00:39;;;;;;;8.82;3.47;;;;;;;;;;5051022;28;20090;-65
2023/05/13 14:03:05;;;;;;;6.03;3.47;;;;;;;;;;5056705;28;20453;-65
2023/05/13 14:05:30;;;;;;;8.82;3.60;;;;;;;;;;5061597;28;20040;-65
2023/05/13 14:07:56;;;;;;;7.53;3.47;;;;;;;;;;5056342;28;20031;-65
2023/05/13 14:10:21;;;;;;;6.50;3.28;;;;;;;;;;5054749;28;20052;-65
2023/05/13 14:12:47;;;;;;;6.45;3.38;;;;;;;;;;5055503;28;20068;-64
2023/05/13 14:15:12;;;;;;;7.15;3.70;;;;;;;;;;5074667;28;20032;-64
2023/05/13 14:17:38;;;;;;;5.10;3.40;;;;;;;;;;5053537;28;20085;-65
2023/05/13 14:20:05;;;;;;;5.53;3.78;;;;;;;;;;5059073;28;20024;-65
2023/05/13 14:22:30;;;;;;;5.20;3.30;;;;;;;;;;5062500;28;20036;-65
2023/05/13 14:24:55;;;;;;;6.95;3.35;;;;;;;;;;5068102;28;20039;-65
2023/05/13 14:27:23;;;;;;;4.55;3.50;;;;;;;;;;5056156;28;20033;-65
2023/05/13 14:29:48;;;;;;;5.57;3.33;;;;;;;;;;5072387;28;20356;-65
2023/05/13 14:32:14;;;;;;;6.70;3.75;;;;;;;;;;5067648;28;20535;-65
2023/05/13 14:34:40;;;;;;;7.93;3.70;;;;;;;;;;5062190;28;20446;-64